createdAt,value
2022-10-26T00:04:36.544Z,56.14
2022-10-26T00:09:39.622Z,57.41
2022-10-26T00:14:42.714Z,58.59
2022-10-26T00:19:45.619Z,59.53
2022-10-26T00:24:48.473Z,60.47
2022-10-26T00:29:51.537Z,67.95
2022-10-26T00:34:54.420Z,58.57
2022-10-26T00:39:57.288Z,52.89
2022-10-26T00:45:05.113Z,54.76
2022-10-26T00:50:21.422Z,56.10
2022-10-26T00:55:29.445Z,57.40
2022-10-26T01:00:32.966Z,58.59
2022-10-26T01:05:39.401Z,59.69
2022-10-26T01:10:43.174Z,60.63
2022-10-26T01:16:02.504Z,68.10
2022-10-26T01:21:08.147Z,58.46
2022-10-26T01:26:21.828Z,53.09
2022-10-26T01:31:42.117Z,54.80
2022-10-26T01:36:53.210Z,56.01
2022-10-26T01:42:01.139Z,57.51
2022-10-26T01:47:04.697Z,58.52
2022-10-26T01:52:10.458Z,59.69
2022-10-26T01:57:15.008Z,67.74
2022-10-26T02:02:24.091Z,59.56
2022-10-26T02:07:51.731Z,52.57
2022-10-26T02:13:10.703Z,54.30
2022-10-26T02:18:32.736Z,55.94
2022-10-26T02:23:39.550Z,56.87
2022-10-26T02:28:47.019Z,58.41
2022-10-26T02:33:53.283Z,59.53
2022-10-26T02:38:57.985Z,67.23
2022-10-26T02:44:04.969Z,59.11
2022-10-26T02:49:08.051Z,53.05
2022-10-26T02:54:20.028Z,54.57
2022-10-26T02:59:26.334Z,56.15
2022-10-26T03:04:33.795Z,57.64
2022-10-26T03:09:37.310Z,58.82
2022-10-26T03:14:41.430Z,60.36
2022-10-26T03:19:44.484Z,67.55
2022-10-26T03:24:47.435Z,58.52
2022-10-26T03:29:50.390Z,53.23
2022-10-26T03:34:53.401Z,55.16
2022-10-26T03:39:56.311Z,56.69
2022-10-26T03:44:59.205Z,57.85
2022-10-26T03:50:02.105Z,59.11
2022-10-26T03:55:05.862Z,60.66
2022-10-26T04:00:10.463Z,68.27
2022-10-26T04:05:17.635Z,60.46
2022-10-26T04:10:21.038Z,52.68
2022-10-26T04:15:24.454Z,53.88
2022-10-26T04:20:28.874Z,55.63
2022-10-26T04:25:33.679Z,56.91
2022-10-26T04:30:37.436Z,58.31
2022-10-26T04:35:40.627Z,59.69
2022-10-26T04:40:43.551Z,66.42
2022-10-26T04:45:46.656Z,58.16
2022-10-26T04:50:52.180Z,53.50
2022-10-26T04:55:59.816Z,54.49
2022-10-26T05:01:03.321Z,55.45
2022-10-26T05:06:06.697Z,57.23
2022-10-26T05:11:09.727Z,58.49
2022-10-26T05:16:13.199Z,59.88
2022-10-26T05:21:19.838Z,67.45
2022-10-26T05:26:23.933Z,59.74
2022-10-26T05:31:27.213Z,53.21
2022-10-26T05:36:30.107Z,54.44
2022-10-26T05:41:33.330Z,56.26
2022-10-26T05:46:36.311Z,57.40
2022-10-26T05:51:39.779Z,58.95
2022-10-26T05:56:43.047Z,60.36
2022-10-26T06:02:07.422Z,68.83
2022-10-26T06:07:28.818Z,62.74
2022-10-26T06:12:31.989Z,53.20
2022-10-26T06:18:00.016Z,53.81
2022-10-26T06:23:29.094Z,55.60
2022-10-26T06:28:58.004Z,57.34
2022-10-26T06:34:01.072Z,58.89
2022-10-26T06:39:11.555Z,60.28
2022-10-26T06:44:23.004Z,68.67
2022-10-26T06:49:34.886Z,60.78
2022-10-26T06:54:54.740Z,53.94
2022-10-26T07:00:22.530Z,54.77
2022-10-26T07:05:25.761Z,55.88
2022-10-26T07:10:28.733Z,57.77
2022-10-26T07:15:31.672Z,59.32
2022-10-26T07:20:39.786Z,60.28
2022-10-26T07:25:43.065Z,67.75
2022-10-26T07:30:46.088Z,59.32
2022-10-26T07:35:49.047Z,53.26
2022-10-26T07:40:54.330Z,54.94
2022-10-26T07:45:57.456Z,56.15
2022-10-26T07:51:03.163Z,56.58
2022-10-26T07:56:07.146Z,58.76
2022-10-26T08:01:17.769Z,59.74
2022-10-26T08:06:22.210Z,60.83
2022-10-26T08:11:25.093Z,66.92
2022-10-26T08:16:28.190Z,56.99
2022-10-26T08:21:46.408Z,53.45
2022-10-26T08:26:49.616Z,55.02
2022-10-26T08:31:52.568Z,56.33
2022-10-26T08:36:55.480Z,57.87
2022-10-26T08:42:26.154Z,58.11
2022-10-26T08:47:34.565Z,58.58
2022-10-26T08:52:54.069Z,59.17
2022-10-26T08:57:58.014Z,59.85
2022-10-26T09:03:00.923Z,60.50
2022-10-26T09:08:36.884Z,65.96
2022-10-26T09:13:39.743Z,55.17
2022-10-26T09:19:02.888Z,54.29
2022-10-26T09:24:16.391Z,55.14
2022-10-26T09:29:20.953Z,55.92
2022-10-26T09:34:29.887Z,56.19
2022-10-26T09:39:46.649Z,56.78
2022-10-26T09:45:00.144Z,57.24
2022-10-26T09:50:18.436Z,57.52
2022-10-26T09:55:23.083Z,57.84
2022-10-26T10:00:28.917Z,58.72
2022-10-26T10:11:02.178Z,58.11
2022-10-26T10:16:24.061Z,58.41
2022-10-26T10:21:39.850Z,58.00
2022-10-26T10:27:12.388Z,58.03
2022-10-26T10:32:24.636Z,57.70
2022-10-26T10:37:35.176Z,58.28
2022-10-26T10:42:41.646Z,58.20
2022-10-26T10:48:13.526Z,57.35
2022-10-26T10:53:29.396Z,56.66
2022-10-26T10:58:49.841Z,56.80
2022-10-26T11:04:28.186Z,56.53
2022-10-26T11:09:36.736Z,55.99
2022-10-26T11:14:46.318Z,56.45
2022-10-26T11:19:57.767Z,56.05
2022-10-26T11:25:12.065Z,56.04
2022-10-26T11:30:20.100Z,56.13
2022-10-26T11:35:56.685Z,55.77
2022-10-26T11:41:33.562Z,55.46
2022-10-26T11:46:43.505Z,55.97
2022-10-26T11:52:14.778Z,56.31
2022-10-26T11:57:18.778Z,55.67
2022-10-26T12:02:24.566Z,55.22
2022-10-26T12:07:31.448Z,55.14
2022-10-26T12:12:47.318Z,55.08
2022-10-26T12:17:56.496Z,55.04
2022-10-26T12:22:59.711Z,54.85
2022-10-26T12:28:02.995Z,54.99
2022-10-26T12:33:29.379Z,55.23
2022-10-26T12:38:33.933Z,54.41
2022-10-26T12:43:37.006Z,53.56
2022-10-26T12:48:43.057Z,53.58
2022-10-26T12:54:18.379Z,52.80
2022-10-26T12:59:30.417Z,52.48
2022-10-26T13:04:57.406Z,52.06
2022-10-26T13:10:04.955Z,51.83
2022-10-26T13:15:39.820Z,51.55
2022-10-26T13:20:54.798Z,51.88
2022-10-26T13:26:03.571Z,51.98
2022-10-26T13:31:12.027Z,51.80
2022-10-26T13:36:23.569Z,51.97
2022-10-26T13:41:45.364Z,51.24
2022-10-26T13:46:53.502Z,51.29
2022-10-26T13:52:02.352Z,50.96
2022-10-26T13:57:08.001Z,50.56
2022-10-26T14:02:25.466Z,50.37
2022-10-26T14:07:39.677Z,50.56
2022-10-26T14:12:42.799Z,50.29
2022-10-26T14:17:51.044Z,50.50
2022-10-26T14:22:54.304Z,50.43
2022-10-26T14:27:57.489Z,50.46
2022-10-26T14:33:00.486Z,50.78
2022-10-26T14:38:15.068Z,50.73
2022-10-26T14:43:22.972Z,50.67
2022-10-26T14:48:32.372Z,50.86
2022-10-26T14:53:41.054Z,51.02
2022-10-26T14:58:44.610Z,50.88
2022-10-26T15:03:52.874Z,51.04
2022-10-26T15:08:58.340Z,51.88
2022-10-26T15:14:01.642Z,52.30
2022-10-26T15:19:10.560Z,52.40
2022-10-26T15:24:38.787Z,53.42
2022-10-26T15:29:44.629Z,53.62
2022-10-26T15:35:05.626Z,54.12
2022-10-26T15:40:09.008Z,54.13
2022-10-26T15:45:20.937Z,54.94
2022-10-26T15:50:27.403Z,55.38
2022-10-26T15:55:30.950Z,55.73
2022-10-26T16:00:34.003Z,56.25
2022-10-26T16:05:37.019Z,56.61
2022-10-26T16:10:40.123Z,56.88
2022-10-26T16:15:43.719Z,57.31
2022-10-26T16:20:46.732Z,57.65
2022-10-26T16:25:49.624Z,58.24
2022-10-26T16:30:59.247Z,58.61
2022-10-26T16:36:03.875Z,58.92
2022-10-26T16:41:12.145Z,59.17
2022-10-26T16:46:19.992Z,59.49
2022-10-26T16:51:28.613Z,59.92
2022-10-26T16:56:31.805Z,60.15
2022-10-26T17:01:36.053Z,60.57
2022-10-26T17:06:39.060Z,60.82
2022-10-26T17:11:42.126Z,61.14
2022-10-26T17:16:45.124Z,61.35
2022-10-26T17:21:48.243Z,61.68
2022-10-26T17:26:51.173Z,61.99
2022-10-26T17:31:54.276Z,69.03
2022-10-26T17:36:57.944Z,60.44
2022-10-26T17:42:00.888Z,52.45
2022-10-26T17:47:04.010Z,53.40
2022-10-26T17:52:07.010Z,54.59
2022-10-26T17:57:09.997Z,55.76
2022-10-26T18:02:12.992Z,56.70
2022-10-26T18:07:16.038Z,57.49
2022-10-26T18:12:18.986Z,58.50
2022-10-26T18:17:21.856Z,59.31
2022-10-26T18:22:25.155Z,60.08
2022-10-26T18:27:28.164Z,60.83
2022-10-26T18:32:31.239Z,61.47
2022-10-26T18:37:34.246Z,68.42
2022-10-26T18:42:37.298Z,59.11
2022-10-26T18:47:41.235Z,52.64
2022-10-26T18:52:45.310Z,53.90
2022-10-26T18:57:48.284Z,55.33
2022-10-26T19:02:52.490Z,56.74
2022-10-26T19:07:55.711Z,57.56
2022-10-26T19:12:58.679Z,58.42
2022-10-26T19:18:03.026Z,59.32
2022-10-26T19:23:06.205Z,60.17
2022-10-26T19:28:09.152Z,61.01
2022-10-26T19:33:12.202Z,68.46
2022-10-26T19:38:15.029Z,60.30
2022-10-26T19:43:17.967Z,52.10
2022-10-26T19:48:21.216Z,53.40
2022-10-26T19:53:24.528Z,54.56
2022-10-26T19:58:30.201Z,55.81
2022-10-26T20:03:34.257Z,56.67
2022-10-26T20:08:37.810Z,57.76
2022-10-26T20:13:40.957Z,58.85
2022-10-26T20:18:47.754Z,59.68
2022-10-26T20:23:52.163Z,60.41
2022-10-26T20:28:55.113Z,61.07
2022-10-26T20:33:58.179Z,68.86
2022-10-26T20:39:01.758Z,60.08
2022-10-26T20:44:05.106Z,52.85
2022-10-26T20:49:09.502Z,53.93
2022-10-26T20:54:19.376Z,55.91
2022-10-26T20:59:26.013Z,57.49
2022-10-26T21:04:28.929Z,58.59
2022-10-26T21:09:34.222Z,59.40
2022-10-26T21:14:41.077Z,59.61
2022-10-26T21:19:44.178Z,59.89
2022-10-26T21:24:47.491Z,60.42
2022-10-26T21:29:50.389Z,60.95
2022-10-26T21:34:55.707Z,68.55
2022-10-26T21:39:58.619Z,60.43
2022-10-26T21:45:01.664Z,52.56
2022-10-26T21:50:05.096Z,53.70
2022-10-26T21:55:08.379Z,56.37
2022-10-26T22:00:11.985Z,57.63
2022-10-26T22:05:16.112Z,58.16
2022-10-26T22:10:18.970Z,58.53
2022-10-26T22:15:22.127Z,59.13
2022-10-26T22:20:25.451Z,59.82
2022-10-26T22:25:28.422Z,60.55
2022-10-26T22:30:32.461Z,61.05
2022-10-26T22:35:35.618Z,68.86
2022-10-26T22:40:39.439Z,59.36
2022-10-26T22:45:42.894Z,52.42
2022-10-26T22:50:47.221Z,53.93
2022-10-26T22:55:51.904Z,55.29
2022-10-26T23:01:14.372Z,56.56
2022-10-26T23:06:20.905Z,57.78
2022-10-26T23:11:27.911Z,58.91
2022-10-26T23:16:32.998Z,60.14
2022-10-26T23:21:37.386Z,69.54
2022-10-26T23:26:40.823Z,63.19
2022-10-26T23:31:44.367Z,54.42
2022-10-26T23:36:48.481Z,54.58
2022-10-26T23:41:53.625Z,56.48
2022-10-26T23:46:56.731Z,57.38
2022-10-26T23:52:00.476Z,58.42
2022-10-26T23:57:04.863Z,59.62
